West Melbourne, Florida
Current Conditions -  °F | °C
As of 5:53 AM on Sunday 23 Nov 2014 (Local Time) from KMLB Reporting Station
Light Rain Light Rain  
Wind Chill: 74°   Ceiling: 2700
Heat Index: 74°   Visibility: 8mi
Dew Point: 71°   Wind: 14mph
Humidity: 91%   Direction: 150°SSE
Pressure: 30.02"   Gusts: NA
Location:  28.0786°N, 80.6027°W
Report Text: KMLB 231053Z 15012KT 8SM -RA SCT013 BKN027 OVC035 23/22 A3002 RMK AO2 RAB45 SLP163 P0000 T02330217
Loading
Personal Weather Stations






























Interactive Weather Map New forecast layout! Learn more

10-Day Weather Forecast

Advertisements
Track Severe Weather on mobile